sensor_id;sensor_type;location;lat;lon;timestamp;temperature;humidity
20929;DHT22;21895;47.072;15.132;2023-02-28T00:02:07;1.60;92.70
20929;DHT22;21895;47.072;15.132;2023-02-28T00:04:33;1.50;93.00
20929;DHT22;21895;47.072;15.132;2023-02-28T00:07:00;1.40;93.20
20929;DHT22;21895;47.072;15.132;2023-02-28T00:09:26;1.30;93.70
20929;DHT22;21895;47.072;15.132;2023-02-28T00:11:53;1.40;93.60
20929;DHT22;21895;47.072;15.132;2023-02-28T00:14:19;1.40;93.30
20929;DHT22;21895;47.072;15.132;2023-02-28T00:16:46;1.40;93.40
20929;DHT22;21895;47.072;15.132;2023-02-28T00:19:12;1.50;93.70
20929;DHT22;21895;47.072;15.132;2023-02-28T00:21:39;1.50;93.40
20929;DHT22;21895;47.072;15.132;2023-02-28T00:24:06;1.50;93.60
20929;DHT22;21895;47.072;15.132;2023-02-28T00:26:33;1.50;93.70
20929;DHT22;21895;47.072;15.132;2023-02-28T00:28:59;1.50;93.90
20929;DHT22;21895;47.072;15.132;2023-02-28T00:31:26;1.50;93.70
20929;DHT22;21895;47.072;15.132;2023-02-28T00:33:53;1.50;93.60
20929;DHT22;21895;47.072;15.132;2023-02-28T00:36:19;1.50;93.50
20929;DHT22;21895;47.072;15.132;2023-02-28T00:38:46;1.50;93.70
20929;DHT22;21895;47.072;15.132;2023-02-28T00:41:12;1.60;93.50
20929;DHT22;21895;47.072;15.132;2023-02-28T00:43:39;1.60;93.50
20929;DHT22;21895;47.072;15.132;2023-02-28T00:46:06;1.50;93.70
20929;DHT22;21895;47.072;15.132;2023-02-28T00:48:33;1.60;93.90
20929;DHT22;21895;47.072;15.132;2023-02-28T00:51:00;1.70;93.90
20929;DHT22;21895;47.072;15.132;2023-02-28T00:53:27;1.70;94.00
20929;DHT22;21895;47.072;15.132;2023-02-28T00:55:54;1.80;94.40
20929;DHT22;21895;47.072;15.132;2023-02-28T00:58:20;1.80;94.60
20929;DHT22;21895;47.072;15.132;2023-02-28T01:00:47;1.90;94.70
20929;DHT22;21895;47.072;15.132;2023-02-28T01:03:16;1.90;94.40
20929;DHT22;21895;47.072;15.132;2023-02-28T01:05:44;1.90;94.00
20929;DHT22;21895;47.072;15.132;2023-02-28T01:08:12;1.90;93.40
20929;DHT22;21895;47.072;15.132;2023-02-28T01:10:39;1.90;92.70
20929;DHT22;21895;47.072;15.132;2023-02-28T01:13:06;1.90;92.90
20929;DHT22;21895;47.072;15.132;2023-02-28T01:15:33;1.70;92.90
20929;DHT22;21895;47.072;15.132;2023-02-28T01:17:59;1.70;92.80
20929;DHT22;21895;47.072;15.132;2023-02-28T01:20:26;1.70;92.70
20929;DHT22;21895;47.072;15.132;2023-02-28T01:22:52;1.70;92.50
20929;DHT22;21895;47.072;15.132;2023-02-28T01:25:19;1.80;92.50
20929;DHT22;21895;47.072;15.132;2023-02-28T01:27:45;1.80;92.50
20929;DHT22;21895;47.072;15.132;2023-02-28T01:30:12;1.90;92.20
20929;DHT22;21895;47.072;15.132;2023-02-28T01:32:39;1.90;91.90
20929;DHT22;21895;47.072;15.132;2023-02-28T01:35:05;1.90;92.00
20929;DHT22;21895;47.072;15.132;2023-02-28T01:37:32;1.80;92.20
20929;DHT22;21895;47.072;15.132;2023-02-28T01:39:58;1.80;92.10
20929;DHT22;21895;47.072;15.132;2023-02-28T01:42:25;1.90;92.10
20929;DHT22;21895;47.072;15.132;2023-02-28T01:45:00;1.80;92.20
20929;DHT22;21895;47.072;15.132;2023-02-28T01:47:36;1.80;92.30
20929;DHT22;21895;47.072;15.132;2023-02-28T01:50:11;1.80;92.30
20929;DHT22;21895;47.072;15.132;2023-02-28T01:52:41;1.70;92.40
20929;DHT22;21895;47.072;15.132;2023-02-28T01:55:10;1.70;92.50
20929;DHT22;21895;47.072;15.132;2023-02-28T01:57:45;1.80;92.70
20929;DHT22;21895;47.072;15.132;2023-02-28T02:00:20;1.80;92.30
20929;DHT22;21895;47.072;15.132;2023-02-28T02:02:52;1.80;92.30
20929;DHT22;21895;47.072;15.132;2023-02-28T02:05:26;1.70;92.90
20929;DHT22;21895;47.072;15.132;2023-02-28T02:08:01;1.70;93.00
20929;DHT22;21895;47.072;15.132;2023-02-28T02:10:45;1.70;93.00
20929;DHT22;21895;47.072;15.132;2023-02-28T02:13:37;1.70;92.90
20929;DHT22;21895;47.072;15.132;2023-02-28T02:20:29;1.60;92.70
20929;DHT22;21895;47.072;15.132;2023-02-28T02:25:12;1.60;93.00
20929;DHT22;21895;47.072;15.132;2023-02-28T02:38:06;1.60;93.50
20929;DHT22;21895;47.072;15.132;2023-02-28T02:45:56;1.60;93.50
20929;DHT22;21895;47.072;15.132;2023-02-28T02:48:31;1.70;93.60
20929;DHT22;21895;47.072;15.132;2023-02-28T02:51:04;1.60;93.80
20929;DHT22;21895;47.072;15.132;2023-02-28T02:53:42;1.70;93.80
20929;DHT22;21895;47.072;15.132;2023-02-28T02:56:18;1.70;93.70
20929;DHT22;21895;47.072;15.132;2023-02-28T02:58:51;1.70;93.40
20929;DHT22;21895;47.072;15.132;2023-02-28T03:01:23;1.70;93.20
20929;DHT22;21895;47.072;15.132;2023-02-28T03:04:12;1.70;93.60
20929;DHT22;21895;47.072;15.132;2023-02-28T03:06:44;1.70;93.70
20929;DHT22;21895;47.072;15.132;2023-02-28T03:09:10;1.70;94.20
20929;DHT22;21895;47.072;15.132;2023-02-28T03:11:38;1.80;94.20
20929;DHT22;21895;47.072;15.132;2023-02-28T03:15:06;1.90;94.50
20929;DHT22;21895;47.072;15.132;2023-02-28T03:18:06;2.00;94.10
20929;DHT22;21895;47.072;15.132;2023-02-28T03:26:15;2.10;93.70
20929;DHT22;21895;47.072;15.132;2023-02-28T03:29:09;2.10;94.20
20929;DHT22;21895;47.072;15.132;2023-02-28T03:31:53;2.10;94.10
20929;DHT22;21895;47.072;15.132;2023-02-28T03:34:31;2.00;94.90
20929;DHT22;21895;47.072;15.132;2023-02-28T03:37:18;2.10;95.10
20929;DHT22;21895;47.072;15.132;2023-02-28T03:39:56;2.10;95.60
20929;DHT22;21895;47.072;15.132;2023-02-28T03:42:29;2.10;95.60
20929;DHT22;21895;47.072;15.132;2023-02-28T03:45:33;2.00;95.80
20929;DHT22;21895;47.072;15.132;2023-02-28T03:48:14;1.90;96.00
20929;DHT22;21895;47.072;15.132;2023-02-28T03:50:48;1.90;96.40
20929;DHT22;21895;47.072;15.132;2023-02-28T03:53:29;2.00;96.40
20929;DHT22;21895;47.072;15.132;2023-02-28T03:59:02;2.00;96.40
20929;DHT22;21895;47.072;15.132;2023-02-28T04:01:42;1.90;96.60
20929;DHT22;21895;47.072;15.132;2023-02-28T04:04:14;1.90;96.70
20929;DHT22;21895;47.072;15.132;2023-02-28T04:06:42;1.90;96.20
20929;DHT22;21895;47.072;15.132;2023-02-28T04:09:12;1.90;96.20
20929;DHT22;21895;47.072;15.132;2023-02-28T04:14:21;1.80;96.40
20929;DHT22;21895;47.072;15.132;2023-02-28T04:16:48;1.80;97.00
20929;DHT22;21895;47.072;15.132;2023-02-28T04:19:17;1.80;97.10
20929;DHT22;21895;47.072;15.132;2023-02-28T04:21:54;1.90;97.20
20929;DHT22;21895;47.072;15.132;2023-02-28T04:24:24;1.90;97.40
20929;DHT22;21895;47.072;15.132;2023-02-28T04:26:54;1.90;97.30
20929;DHT22;21895;47.072;15.132;2023-02-28T04:29:27;2.00;97.20
20929;DHT22;21895;47.072;15.132;2023-02-28T04:31:56;2.00;97.30
20929;DHT22;21895;47.072;15.132;2023-02-28T04:34:27;2.00;97.20
20929;DHT22;21895;47.072;15.132;2023-02-28T04:36:55;2.00;96.40
20929;DHT22;21895;47.072;15.132;2023-02-28T04:39:39;1.90;97.10
20929;DHT22;21895;47.072;15.132;2023-02-28T04:42:06;1.90;97.20
20929;DHT22;21895;47.072;15.132;2023-02-28T04:44:33;1.80;97.40
20929;DHT22;21895;47.072;15.132;2023-02-28T04:46:59;1.80;97.40
20929;DHT22;21895;47.072;15.132;2023-02-28T04:49:26;1.80;97.30
20929;DHT22;21895;47.072;15.132;2023-02-28T04:51:52;1.80;97.00
20929;DHT22;21895;47.072;15.132;2023-02-28T04:54:19;1.80;97.40
20929;DHT22;21895;47.072;15.132;2023-02-28T04:56:46;1.90;97.50
20929;DHT22;21895;47.072;15.132;2023-02-28T04:59:14;1.90;97.30
20929;DHT22;21895;47.072;15.132;2023-02-28T05:01:40;1.80;97.80
20929;DHT22;21895;47.072;15.132;2023-02-28T05:04:12;1.80;97.50
20929;DHT22;21895;47.072;15.132;2023-02-28T05:06:38;1.80;97.20
20929;DHT22;21895;47.072;15.132;2023-02-28T05:09:05;1.80;96.90
20929;DHT22;21895;47.072;15.132;2023-02-28T05:11:33;1.80;98.20
20929;DHT22;21895;47.072;15.132;2023-02-28T05:14:05;1.70;96.80
20929;DHT22;21895;47.072;15.132;2023-02-28T05:16:37;1.70;96.30
20929;DHT22;21895;47.072;15.132;2023-02-28T05:19:04;1.70;96.80
20929;DHT22;21895;47.072;15.132;2023-02-28T05:21:33;1.60;97.20
20929;DHT22;21895;47.072;15.132;2023-02-28T05:24:11;1.70;97.20
20929;DHT22;21895;47.072;15.132;2023-02-28T05:26:40;1.70;97.30
20929;DHT22;21895;47.072;15.132;2023-02-28T05:29:09;1.70;97.50
20929;DHT22;21895;47.072;15.132;2023-02-28T05:31:36;1.70;98.30
20929;DHT22;21895;47.072;15.132;2023-02-28T05:34:04;1.80;97.20
20929;DHT22;21895;47.072;15.132;2023-02-28T05:36:31;1.70;96.60
20929;DHT22;21895;47.072;15.132;2023-02-28T05:38:58;1.70;96.90
20929;DHT22;21895;47.072;15.132;2023-02-28T05:41:24;1.70;97.60
20929;DHT22;21895;47.072;15.132;2023-02-28T05:43:51;1.80;98.10
20929;DHT22;21895;47.072;15.132;2023-02-28T05:46:18;1.80;98.20
20929;DHT22;21895;47.072;15.132;2023-02-28T05:48:47;1.80;98.00
20929;DHT22;21895;47.072;15.132;2023-02-28T05:51:14;1.80;98.00
20929;DHT22;21895;47.072;15.132;2023-02-28T05:53:42;1.80;98.50
20929;DHT22;21895;47.072;15.132;2023-02-28T05:56:08;1.80;98.60
20929;DHT22;21895;47.072;15.132;2023-02-28T05:58:35;1.90;98.50
20929;DHT22;21895;47.072;15.132;2023-02-28T06:01:40;2.00;98.30
20929;DHT22;21895;47.072;15.132;2023-02-28T06:04:16;2.00;98.00
20929;DHT22;21895;47.072;15.132;2023-02-28T06:06:57;1.90;97.40
20929;DHT22;21895;47.072;15.132;2023-02-28T06:09:23;1.90;96.80
20929;DHT22;21895;47.072;15.132;2023-02-28T06:11:50;1.90;96.80
20929;DHT22;21895;47.072;15.132;2023-02-28T06:14:19;1.90;96.80
20929;DHT22;21895;47.072;15.132;2023-02-28T06:16:46;1.80;97.00
20929;DHT22;21895;47.072;15.132;2023-02-28T06:19:13;1.80;97.20
20929;DHT22;21895;47.072;15.132;2023-02-28T06:21:40;1.90;97.10
20929;DHT22;21895;47.072;15.132;2023-02-28T06:24:07;2.00;96.90
20929;DHT22;21895;47.072;15.132;2023-02-28T06:26:34;2.00;97.20
20929;DHT22;21895;47.072;15.132;2023-02-28T06:29:01;2.10;98.10
20929;DHT22;21895;47.072;15.132;2023-02-28T06:31:28;2.10;98.20
20929;DHT22;21895;47.072;15.132;2023-02-28T06:33:56;2.00;98.20
20929;DHT22;21895;47.072;15.132;2023-02-28T06:36:22;2.10;97.90
20929;DHT22;21895;47.072;15.132;2023-02-28T06:38:49;2.10;98.00
20929;DHT22;21895;47.072;15.132;2023-02-28T06:41:24;2.10;98.50
20929;DHT22;21895;47.072;15.132;2023-02-28T06:43:52;2.20;98.60
20929;DHT22;21895;47.072;15.132;2023-02-28T06:46:19;2.20;98.10
20929;DHT22;21895;47.072;15.132;2023-02-28T06:48:46;2.20;97.50
20929;DHT22;21895;47.072;15.132;2023-02-28T06:51:16;2.20;97.20
20929;DHT22;21895;47.072;15.132;2023-02-28T06:53:46;2.30;97.00
20929;DHT22;21895;47.072;15.132;2023-02-28T06:56:14;2.40;96.30
20929;DHT22;21895;47.072;15.132;2023-02-28T06:58:45;2.40;96.20
20929;DHT22;21895;47.072;15.132;2023-02-28T07:01:13;2.40;95.80
20929;DHT22;21895;47.072;15.132;2023-02-28T07:03:40;2.50;96.10
20929;DHT22;21895;47.072;15.132;2023-02-28T07:06:06;2.50;96.50
20929;DHT22;21895;47.072;15.132;2023-02-28T07:08:34;2.50;96.40
20929;DHT22;21895;47.072;15.132;2023-02-28T07:11:02;2.50;96.60
20929;DHT22;21895;47.072;15.132;2023-02-28T07:13:29;2.60;96.30
20929;DHT22;21895;47.072;15.132;2023-02-28T07:16:00;2.60;95.50
20929;DHT22;21895;47.072;15.132;2023-02-28T07:18:32;2.70;95.50
20929;DHT22;21895;47.072;15.132;2023-02-28T07:21:01;2.70;95.20
20929;DHT22;21895;47.072;15.132;2023-02-28T07:23:28;2.70;95.10
20929;DHT22;21895;47.072;15.132;2023-02-28T07:25:55;2.70;94.70
20929;DHT22;21895;47.072;15.132;2023-02-28T07:28:21;2.80;94.00
20929;DHT22;21895;47.072;15.132;2023-02-28T07:30:48;2.80;93.90
20929;DHT22;21895;47.072;15.132;2023-02-28T07:33:15;2.70;93.90
20929;DHT22;21895;47.072;15.132;2023-02-28T07:35:41;2.80;94.10
20929;DHT22;21895;47.072;15.132;2023-02-28T07:38:08;2.80;93.70
20929;DHT22;21895;47.072;15.132;2023-02-28T07:40:35;2.90;93.50
20929;DHT22;21895;47.072;15.132;2023-02-28T07:43:03;3.00;92.90
20929;DHT22;21895;47.072;15.132;2023-02-28T07:45:30;2.90;93.20
20929;DHT22;21895;47.072;15.132;2023-02-28T07:48:00;3.00;93.10
20929;DHT22;21895;47.072;15.132;2023-02-28T07:50:27;3.10;92.50
20929;DHT22;21895;47.072;15.132;2023-02-28T07:52:58;3.10;93.00
20929;DHT22;21895;47.072;15.132;2023-02-28T07:55:25;3.00;93.00
20929;DHT22;21895;47.072;15.132;2023-02-28T07:57:51;3.00;93.10
20929;DHT22;21895;47.072;15.132;2023-02-28T08:00:18;3.10;93.10
20929;DHT22;21895;47.072;15.132;2023-02-28T08:02:44;3.10;92.70
20929;DHT22;21895;47.072;15.132;2023-02-28T08:05:11;3.20;92.40
20929;DHT22;21895;47.072;15.132;2023-02-28T08:07:37;3.20;92.60
20929;DHT22;21895;47.072;15.132;2023-02-28T08:10:05;3.20;93.00
20929;DHT22;21895;47.072;15.132;2023-02-28T08:12:32;3.30;92.60
20929;DHT22;21895;47.072;15.132;2023-02-28T08:14:59;3.30;92.50
20929;DHT22;21895;47.072;15.132;2023-02-28T08:17:25;3.30;92.60
20929;DHT22;21895;47.072;15.132;2023-02-28T08:19:52;3.40;92.60
20929;DHT22;21895;47.072;15.132;2023-02-28T08:22:18;3.40;92.30
20929;DHT22;21895;47.072;15.132;2023-02-28T08:24:45;3.50;92.40
20929;DHT22;21895;47.072;15.132;2023-02-28T08:27:11;3.50;92.30
20929;DHT22;21895;47.072;15.132;2023-02-28T08:29:39;3.50;92.10
20929;DHT22;21895;47.072;15.132;2023-02-28T08:32:06;3.60;92.10
20929;DHT22;21895;47.072;15.132;2023-02-28T08:34:46;3.60;91.80
20929;DHT22;21895;47.072;15.132;2023-02-28T08:37:13;3.70;92.40
20929;DHT22;21895;47.072;15.132;2023-02-28T08:39:40;3.70;91.90
20929;DHT22;21895;47.072;15.132;2023-02-28T08:42:06;3.80;91.90
20929;DHT22;21895;47.072;15.132;2023-02-28T08:44:34;3.70;91.80
20929;DHT22;21895;47.072;15.132;2023-02-28T08:47:00;3.80;91.90
20929;DHT22;21895;47.072;15.132;2023-02-28T08:49:27;3.80;91.70
20929;DHT22;21895;47.072;15.132;2023-02-28T08:51:54;3.80;91.10
20929;DHT22;21895;47.072;15.132;2023-02-28T08:54:23;3.90;91.20
20929;DHT22;21895;47.072;15.132;2023-02-28T08:56:50;4.00;90.90
20929;DHT22;21895;47.072;15.132;2023-02-28T08:59:16;4.00;91.20
20929;DHT22;21895;47.072;15.132;2023-02-28T09:01:43;4.00;90.80
20929;DHT22;21895;47.072;15.132;2023-02-28T09:04:09;4.00;91.30
20929;DHT22;21895;47.072;15.132;2023-02-28T09:06:37;4.00;90.70
20929;DHT22;21895;47.072;15.132;2023-02-28T09:09:04;4.00;91.00
20929;DHT22;21895;47.072;15.132;2023-02-28T09:11:34;4.00;90.90
20929;DHT22;21895;47.072;15.132;2023-02-28T09:14:01;4.00;90.30
20929;DHT22;21895;47.072;15.132;2023-02-28T09:16:30;4.10;91.10
20929;DHT22;21895;47.072;15.132;2023-02-28T09:18:59;4.20;90.30
20929;DHT22;21895;47.072;15.132;2023-02-28T09:21:26;4.30;90.10
20929;DHT22;21895;47.072;15.132;2023-02-28T09:23:53;4.40;90.30
20929;DHT22;21895;47.072;15.132;2023-02-28T09:26:25;4.50;90.60
20929;DHT22;21895;47.072;15.132;2023-02-28T09:29:04;4.50;90.30
20929;DHT22;21895;47.072;15.132;2023-02-28T09:31:31;4.60;90.10
20929;DHT22;21895;47.072;15.132;2023-02-28T09:33:58;4.50;90.20
20929;DHT22;21895;47.072;15.132;2023-02-28T09:36:28;4.60;90.40
20929;DHT22;21895;47.072;15.132;2023-02-28T09:39:10;4.60;90.20
20929;DHT22;21895;47.072;15.132;2023-02-28T09:41:41;4.70;90.60
20929;DHT22;21895;47.072;15.132;2023-02-28T09:44:58;4.70;90.40
20929;DHT22;21895;47.072;15.132;2023-02-28T09:47:37;4.70;90.10
20929;DHT22;21895;47.072;15.132;2023-02-28T09:50:30;4.80;90.00
20929;DHT22;21895;47.072;15.132;2023-02-28T09:53:21;4.80;90.30
20929;DHT22;21895;47.072;15.132;2023-02-28T09:55:59;4.80;90.00
20929;DHT22;21895;47.072;15.132;2023-02-28T10:01:12;4.90;90.30
20929;DHT22;21895;47.072;15.132;2023-02-28T10:04:16;5.20;89.70
20929;DHT22;21895;47.072;15.132;2023-02-28T10:08:01;5.20;89.00
20929;DHT22;21895;47.072;15.132;2023-02-28T10:10:52;5.20;88.80
20929;DHT22;21895;47.072;15.132;2023-02-28T10:13:36;5.20;88.40
20929;DHT22;21895;47.072;15.132;2023-02-28T10:16:15;5.20;87.70
20929;DHT22;21895;47.072;15.132;2023-02-28T10:18:51;5.20;87.80
20929;DHT22;21895;47.072;15.132;2023-02-28T10:21:34;5.30;87.60
20929;DHT22;21895;47.072;15.132;2023-02-28T10:24:14;5.30;88.00
20929;DHT22;21895;47.072;15.132;2023-02-28T10:29:08;5.40;88.00
20929;DHT22;21895;47.072;15.132;2023-02-28T10:31:36;5.50;86.10
20929;DHT22;21895;47.072;15.132;2023-02-28T10:34:04;5.70;86.20
20929;DHT22;21895;47.072;15.132;2023-02-28T10:36:32;5.70;86.10
20929;DHT22;21895;47.072;15.132;2023-02-28T10:39:01;5.60;85.00
20929;DHT22;21895;47.072;15.132;2023-02-28T10:42:05;5.60;86.00
20929;DHT22;21895;47.072;15.132;2023-02-28T10:48:00;5.60;86.20
20929;DHT22;21895;47.072;15.132;2023-02-28T10:52:39;5.80;86.70
20929;DHT22;21895;47.072;15.132;2023-02-28T10:55:23;6.00;86.10
20929;DHT22;21895;47.072;15.132;2023-02-28T10:57:51;6.10;85.20
20929;DHT22;21895;47.072;15.132;2023-02-28T11:00:21;6.10;85.40
20929;DHT22;21895;47.072;15.132;2023-02-28T11:02:51;6.20;84.50
20929;DHT22;21895;47.072;15.132;2023-02-28T11:05:30;6.20;85.80
20929;DHT22;21895;47.072;15.132;2023-02-28T11:08:15;6.30;85.30
20929;DHT22;21895;47.072;15.132;2023-02-28T11:10:58;6.40;85.20
20929;DHT22;21895;47.072;15.132;2023-02-28T11:13:33;6.50;84.50
20929;DHT22;21895;47.072;15.132;2023-02-28T11:16:04;6.50;84.60
20929;DHT22;21895;47.072;15.132;2023-02-28T11:18:50;6.50;84.30
20929;DHT22;21895;47.072;15.132;2023-02-28T11:21:29;6.50;83.60
20929;DHT22;21895;47.072;15.132;2023-02-28T11:24:51;6.60;83.80
20929;DHT22;21895;47.072;15.132;2023-02-28T11:28:05;6.70;83.10
20929;DHT22;21895;47.072;15.132;2023-02-28T11:31:01;6.70;81.30
20929;DHT22;21895;47.072;15.132;2023-02-28T11:33:53;6.80;81.00
20929;DHT22;21895;47.072;15.132;2023-02-28T11:36:28;6.60;83.50
20929;DHT22;21895;47.072;15.132;2023-02-28T11:38:59;6.60;81.40
20929;DHT22;21895;47.072;15.132;2023-02-28T11:55:51;6.40;82.20
20929;DHT22;21895;47.072;15.132;2023-02-28T12:04:31;6.60;82.30
20929;DHT22;21895;47.072;15.132;2023-02-28T12:12:07;6.70;82.90
20929;DHT22;21895;47.072;15.132;2023-02-28T12:16:20;6.70;81.90
20929;DHT22;21895;47.072;15.132;2023-02-28T12:19:21;6.70;81.80
20929;DHT22;21895;47.072;15.132;2023-02-28T12:22:27;6.70;82.70
20929;DHT22;21895;47.072;15.132;2023-02-28T12:26:36;6.70;81.70
20929;DHT22;21895;47.072;15.132;2023-02-28T12:31:01;6.40;82.50
20929;DHT22;21895;47.072;15.132;2023-02-28T12:33:38;6.60;83.90
20929;DHT22;21895;47.072;15.132;2023-02-28T12:36:15;6.70;81.00
20929;DHT22;21895;47.072;15.132;2023-02-28T12:39:01;6.70;81.90
20929;DHT22;21895;47.072;15.132;2023-02-28T12:42:36;6.60;80.90
20929;DHT22;21895;47.072;15.132;2023-02-28T12:45:40;6.60;82.90
20929;DHT22;21895;47.072;15.132;2023-02-28T12:48:15;6.80;81.60
20929;DHT22;21895;47.072;15.132;2023-02-28T12:51:09;6.70;83.70
20929;DHT22;21895;47.072;15.132;2023-02-28T12:54:11;6.90;82.10
20929;DHT22;21895;47.072;15.132;2023-02-28T13:07:47;6.70;83.60
20929;DHT22;21895;47.072;15.132;2023-02-28T13:11:00;6.80;82.50
20929;DHT22;21895;47.072;15.132;2023-02-28T13:13:31;6.80;82.80
20929;DHT22;21895;47.072;15.132;2023-02-28T13:16:19;6.60;84.60
20929;DHT22;21895;47.072;15.132;2023-02-28T13:18:46;6.70;82.70
20929;DHT22;21895;47.072;15.132;2023-02-28T13:27:35;6.40;84.00
20929;DHT22;21895;47.072;15.132;2023-02-28T13:34:14;6.50;83.20
20929;DHT22;21895;47.072;15.132;2023-02-28T13:36:41;6.50;83.40
20929;DHT22;21895;47.072;15.132;2023-02-28T13:47:21;6.40;84.00
20929;DHT22;21895;47.072;15.132;2023-02-28T13:49:53;6.10;85.50
20929;DHT22;21895;47.072;15.132;2023-02-28T13:52:22;6.10;84.50
20929;DHT22;21895;47.072;15.132;2023-02-28T14:06:18;6.20;84.30
20929;DHT22;21895;47.072;15.132;2023-02-28T14:09:59;6.20;85.60
20929;DHT22;21895;47.072;15.132;2023-02-28T14:12:58;6.20;85.20
20929;DHT22;21895;47.072;15.132;2023-02-28T14:17:54;6.00;86.40
20929;DHT22;21895;47.072;15.132;2023-02-28T14:20:23;6.10;87.50
20929;DHT22;21895;47.072;15.132;2023-02-28T14:23:19;6.00;87.10
20929;DHT22;21895;47.072;15.132;2023-02-28T14:36:32;5.90;87.60
20929;DHT22;21895;47.072;15.132;2023-02-28T14:39:07;5.80;87.20
20929;DHT22;21895;47.072;15.132;2023-02-28T14:41:45;5.90;86.60
20929;DHT22;21895;47.072;15.132;2023-02-28T14:44:23;5.80;87.60
20929;DHT22;21895;47.072;15.132;2023-02-28T14:47:02;5.70;87.70
20929;DHT22;21895;47.072;15.132;2023-02-28T14:49:36;5.70;87.70
20929;DHT22;21895;47.072;15.132;2023-02-28T14:52:25;5.80;87.20
20929;DHT22;21895;47.072;15.132;2023-02-28T14:55:05;5.90;87.60
20929;DHT22;21895;47.072;15.132;2023-02-28T14:57:53;5.90;87.50
20929;DHT22;21895;47.072;15.132;2023-02-28T15:00:25;5.90;87.40
20929;DHT22;21895;47.072;15.132;2023-02-28T15:02:54;5.80;88.60
20929;DHT22;21895;47.072;15.132;2023-02-28T15:05:33;5.80;87.20
20929;DHT22;21895;47.072;15.132;2023-02-28T15:08:12;5.70;86.80
20929;DHT22;21895;47.072;15.132;2023-02-28T15:10:55;5.60;89.50
20929;DHT22;21895;47.072;15.132;2023-02-28T15:13:34;5.60;87.60
20929;DHT22;21895;47.072;15.132;2023-02-28T15:16:16;5.50;87.60
20929;DHT22;21895;47.072;15.132;2023-02-28T15:18:54;5.60;88.50
20929;DHT22;21895;47.072;15.132;2023-02-28T15:21:31;5.60;88.20
20929;DHT22;21895;47.072;15.132;2023-02-28T15:24:48;5.60;89.30
20929;DHT22;21895;47.072;15.132;2023-02-28T15:27:23;5.50;89.10
20929;DHT22;21895;47.072;15.132;2023-02-28T15:29:58;5.50;89.70
20929;DHT22;21895;47.072;15.132;2023-02-28T15:32:34;5.40;89.20
20929;DHT22;21895;47.072;15.132;2023-02-28T15:35:20;5.40;88.10
20929;DHT22;21895;47.072;15.132;2023-02-28T15:37:57;5.30;89.10
20929;DHT22;21895;47.072;15.132;2023-02-28T15:40:53;5.20;89.50
20929;DHT22;21895;47.072;15.132;2023-02-28T15:43:29;5.10;88.70
20929;DHT22;21895;47.072;15.132;2023-02-28T15:46:05;5.00;89.40
20929;DHT22;21895;47.072;15.132;2023-02-28T15:48:53;5.00;89.70
20929;DHT22;21895;47.072;15.132;2023-02-28T15:51:32;5.10;89.90
20929;DHT22;21895;47.072;15.132;2023-02-28T15:56:46;5.10;90.00
20929;DHT22;21895;47.072;15.132;2023-02-28T15:59:25;5.20;90.00
20929;DHT22;21895;47.072;15.132;2023-02-28T16:02:22;5.10;90.40
20929;DHT22;21895;47.072;15.132;2023-02-28T16:07:02;5.20;90.60
20929;DHT22;21895;47.072;15.132;2023-02-28T16:09:32;5.20;90.00
20929;DHT22;21895;47.072;15.132;2023-02-28T16:12:02;5.10;89.60
20929;DHT22;21895;47.072;15.132;2023-02-28T16:14:29;5.10;90.10
20929;DHT22;21895;47.072;15.132;2023-02-28T16:17:08;5.00;90.00
20929;DHT22;21895;47.072;15.132;2023-02-28T16:19:45;4.90;90.20
20929;DHT22;21895;47.072;15.132;2023-02-28T16:22:11;4.70;90.90
20929;DHT22;21895;47.072;15.132;2023-02-28T16:24:38;4.70;91.00
20929;DHT22;21895;47.072;15.132;2023-02-28T16:27:06;4.70;90.90
20929;DHT22;21895;47.072;15.132;2023-02-28T16:29:36;4.60;90.80
20929;DHT22;21895;47.072;15.132;2023-02-28T16:32:06;4.60;91.00
20929;DHT22;21895;47.072;15.132;2023-02-28T16:34:33;4.60;91.10
20929;DHT22;21895;47.072;15.132;2023-02-28T16:36:59;4.50;91.20
20929;DHT22;21895;47.072;15.132;2023-02-28T16:39:26;4.50;91.10
20929;DHT22;21895;47.072;15.132;2023-02-28T16:41:52;4.40;91.80
20929;DHT22;21895;47.072;15.132;2023-02-28T16:44:29;4.50;91.50
20929;DHT22;21895;47.072;15.132;2023-02-28T16:47:00;4.40;91.30
20929;DHT22;21895;47.072;15.132;2023-02-28T16:49:27;4.40;91.70
20929;DHT22;21895;47.072;15.132;2023-02-28T16:51:54;4.40;91.90
20929;DHT22;21895;47.072;15.132;2023-02-28T16:54:20;4.30;91.80
20929;DHT22;21895;47.072;15.132;2023-02-28T16:56:48;4.20;92.10
20929;DHT22;21895;47.072;15.132;2023-02-28T16:59:19;4.20;92.30
20929;DHT22;21895;47.072;15.132;2023-02-28T17:01:49;4.20;92.40
20929;DHT22;21895;47.072;15.132;2023-02-28T17:04:16;4.10;93.40
20929;DHT22;21895;47.072;15.132;2023-02-28T17:06:43;4.10;94.00
20929;DHT22;21895;47.072;15.132;2023-02-28T17:09:20;4.00;95.40
20929;DHT22;21895;47.072;15.132;2023-02-28T17:11:56;4.00;95.00
20929;DHT22;21895;47.072;15.132;2023-02-28T17:14:23;4.10;94.80
20929;DHT22;21895;47.072;15.132;2023-02-28T17:16:49;4.10;94.90
20929;DHT22;21895;47.072;15.132;2023-02-28T17:19:16;4.00;94.60
20929;DHT22;21895;47.072;15.132;2023-02-28T17:21:44;4.10;95.00
20929;DHT22;21895;47.072;15.132;2023-02-28T17:24:11;4.00;94.80
20929;DHT22;21895;47.072;15.132;2023-02-28T17:26:42;4.10;95.10
20929;DHT22;21895;47.072;15.132;2023-02-28T17:29:19;4.00;95.20
20929;DHT22;21895;47.072;15.132;2023-02-28T17:31:47;4.00;95.20
20929;DHT22;21895;47.072;15.132;2023-02-28T17:34:14;4.00;95.80
20929;DHT22;21895;47.072;15.132;2023-02-28T17:36:49;3.90;96.00
20929;DHT22;21895;47.072;15.132;2023-02-28T17:39:19;3.90;96.00
20929;DHT22;21895;47.072;15.132;2023-02-28T17:41:54;3.90;96.10
20929;DHT22;21895;47.072;15.132;2023-02-28T17:44:21;3.90;96.10
20929;DHT22;21895;47.072;15.132;2023-02-28T17:46:53;3.90;95.60
20929;DHT22;21895;47.072;15.132;2023-02-28T17:49:21;3.90;94.80
20929;DHT22;21895;47.072;15.132;2023-02-28T17:51:48;3.90;95.20
20929;DHT22;21895;47.072;15.132;2023-02-28T17:54:14;3.90;95.50
20929;DHT22;21895;47.072;15.132;2023-02-28T17:56:44;3.80;95.60
20929;DHT22;21895;47.072;15.132;2023-02-28T17:59:12;3.80;95.70
20929;DHT22;21895;47.072;15.132;2023-02-28T18:01:39;3.90;95.50
20929;DHT22;21895;47.072;15.132;2023-02-28T18:04:05;3.80;94.90
20929;DHT22;21895;47.072;15.132;2023-02-28T18:06:37;3.90;95.00
20929;DHT22;21895;47.072;15.132;2023-02-28T18:09:16;3.70;94.80
20929;DHT22;21895;47.072;15.132;2023-02-28T18:11:50;3.80;94.60
20929;DHT22;21895;47.072;15.132;2023-02-28T18:14:19;3.70;94.50
20929;DHT22;21895;47.072;15.132;2023-02-28T18:16:49;3.70;94.60
20929;DHT22;21895;47.072;15.132;2023-02-28T18:19:16;3.70;95.00
20929;DHT22;21895;47.072;15.132;2023-02-28T18:21:45;3.80;94.90
20929;DHT22;21895;47.072;15.132;2023-02-28T18:24:14;3.80;94.90